createdAt,value
2023-02-28T00:02:32.948Z,100675.30
2023-02-28T00:05:34.822Z,100673.83
2023-02-28T00:08:37.075Z,100674.58
2023-02-28T00:11:38.958Z,100675.80
2023-02-28T00:14:40.667Z,100682.83
2023-02-28T00:17:42.260Z,100690.20
2023-02-28T00:20:44.028Z,100694.91
2023-02-28T00:23:45.819Z,100697.39
2023-02-28T00:26:47.363Z,100695.85
2023-02-28T00:29:49.417Z,100691.77
2023-02-28T00:32:51.720Z,100691.20
2023-02-28T00:35:53.447Z,100687.25
2023-02-28T00:38:54.930Z,100685.48
2023-02-28T00:41:56.496Z,100685.92
2023-02-28T00:44:58.155Z,100682.94
2023-02-28T00:47:59.822Z,100686.88
2023-02-28T00:51:01.882Z,100683.69
2023-02-28T00:54:03.822Z,100689.48
2023-02-28T00:57:05.355Z,100687.30
2023-02-28T01:00:08.713Z,100686.31
2023-02-28T01:03:10.346Z,100688.70
2023-02-28T01:06:12.070Z,100688.20
2023-02-28T01:09:14.380Z,100686.65
2023-02-28T01:12:16.846Z,100690.54
2023-02-28T01:15:18.631Z,100691.71
2023-02-28T01:18:21.670Z,100691.82
2023-02-28T01:21:23.408Z,100692.11
2023-02-28T01:24:25.734Z,100694.45
2023-02-28T01:27:27.642Z,100692.42
2023-02-28T01:30:29.253Z,100692.60
2023-02-28T01:33:31.316Z,100695.48
2023-02-28T01:36:32.945Z,100698.38
2023-02-28T01:39:34.587Z,100700.83
2023-02-28T01:42:36.108Z,100700.44
2023-02-28T01:45:38.210Z,100700.53
2023-02-28T01:48:43.951Z,100702.84
2023-02-28T01:51:48.631Z,100703.84
2023-02-28T01:54:53.389Z,100700.91
2023-02-28T01:58:01.470Z,100701.05
2023-02-28T02:01:03.160Z,100698.48
2023-02-28T02:04:05.065Z,100698.42
2023-02-28T02:07:06.678Z,100695.34
2023-02-28T02:10:32.496Z,100691.55
2023-02-28T02:14:19.188Z,100693.80
2023-02-28T02:17:30.267Z,100693.57
2023-02-28T02:21:05.953Z,100694.52
2023-02-28T02:24:44.848Z,100688.45
2023-02-28T02:28:11.436Z,100687.95
2023-02-28T02:31:42.135Z,100687.81
2023-02-28T02:35:30.676Z,100682.41
2023-02-28T02:38:35.201Z,100680.02
2023-02-28T02:41:53.229Z,100671.77
2023-02-28T02:45:02.770Z,100664.66
2023-02-28T02:48:07.975Z,100666.72
2023-02-28T02:51:15.759Z,100666.63
2023-02-28T02:54:22.046Z,100663.31
2023-02-28T02:57:33.142Z,100660.63
2023-02-28T03:00:44.766Z,100662.86
2023-02-28T03:03:49.480Z,100665.09
2023-02-28T03:06:52.325Z,100661.81
2023-02-28T03:09:55.853Z,100666.61
2023-02-28T03:13:27.527Z,100670.07
2023-02-28T03:17:03.666Z,100671.42
2023-02-28T03:20:29.201Z,100672.13
2023-02-28T03:23:40.002Z,100673.70
2023-02-28T03:26:45.042Z,100673.23
2023-02-28T03:29:51.681Z,100675.63
2023-02-28T03:32:59.511Z,100674.34
2023-02-28T03:36:09.443Z,100679.43
2023-02-28T03:39:57.128Z,100678.95
2023-02-28T03:43:04.939Z,100682.54
2023-02-28T03:46:11.427Z,100687.64
2023-02-28T03:49:18.825Z,100689.39
2023-02-28T03:52:24.220Z,100691.29
2023-02-28T03:55:26.415Z,100695.59
2023-02-28T03:58:38.786Z,100696.54
2023-02-28T04:01:44.017Z,100701.77
2023-02-28T04:04:45.760Z,100698.89
2023-02-28T04:07:47.862Z,100701.86
2023-02-28T04:10:57.332Z,100700.67
2023-02-28T04:13:59.281Z,100697.39
2023-02-28T04:17:04.196Z,100702.05
2023-02-28T04:20:06.300Z,100705.89
2023-02-28T04:23:07.958Z,100707.88
2023-02-28T04:26:09.570Z,100709.85
2023-02-28T04:29:13.586Z,100710.95
2023-02-28T04:32:15.363Z,100711.23
2023-02-28T04:35:17.006Z,100711.48
2023-02-28T04:38:18.693Z,100712.75
2023-02-28T04:41:20.806Z,100711.80
2023-02-28T04:44:23.366Z,100713.92
2023-02-28T04:47:24.944Z,100715.55
2023-02-28T04:50:26.484Z,100716.14
2023-02-28T04:53:29.057Z,100719.15
2023-02-28T04:56:30.730Z,100725.25
2023-02-28T04:59:32.464Z,100721.70
2023-02-28T05:02:36.060Z,100726.38
2023-02-28T05:05:37.781Z,100728.58
2023-02-28T05:08:40.131Z,100730.34
2023-02-28T05:11:42.455Z,100729.58
2023-02-28T05:14:44.098Z,100727.33
2023-02-28T05:17:45.739Z,100729.15
2023-02-28T05:20:47.421Z,100735.14
2023-02-28T05:23:48.948Z,100735.50
2023-02-28T05:26:53.363Z,100739.40
2023-02-28T05:29:54.904Z,100741.39
2023-02-28T05:32:56.600Z,100741.73
2023-02-28T05:35:58.169Z,100743.05
2023-02-28T05:38:59.782Z,100751.02
2023-02-28T05:42:01.471Z,100761.87
2023-02-28T05:45:04.148Z,100761.70
2023-02-28T05:48:06.099Z,100762.17
2023-02-28T05:51:09.136Z,100763.58
2023-02-28T05:54:12.878Z,100773.21
2023-02-28T05:57:24.452Z,100774.80
2023-02-28T06:00:26.542Z,100785.17
2023-02-28T06:03:28.582Z,100787.04
2023-02-28T06:06:30.583Z,100786.78
2023-02-28T06:09:32.287Z,100789.79
2023-02-28T06:12:33.895Z,100788.79
2023-02-28T06:15:35.434Z,100791.74
2023-02-28T06:18:37.228Z,100795.55
2023-02-28T06:21:41.092Z,100798.98
2023-02-28T06:24:43.105Z,100801.41
2023-02-28T06:27:44.929Z,100802.49
2023-02-28T06:30:46.781Z,100800.41
2023-02-28T06:33:49.193Z,100805.58
2023-02-28T06:36:52.787Z,100806.67
2023-02-28T06:39:55.472Z,100807.11
2023-02-28T06:42:56.977Z,100806.36
2023-02-28T06:45:59.757Z,100804.39
2023-02-28T06:49:01.283Z,100804.12
2023-02-28T06:52:02.982Z,100805.38
2023-02-28T06:55:08.723Z,100808.80
2023-02-28T06:58:10.394Z,100815.11
2023-02-28T07:01:11.972Z,100813.75
2023-02-28T07:04:13.820Z,100815.45
2023-02-28T07:07:15.489Z,100824.09
2023-02-28T07:10:19.694Z,100827.95
2023-02-28T07:13:22.660Z,100831.06
2023-02-28T07:16:25.696Z,100823.91
2023-02-28T07:19:27.514Z,100824.71
2023-02-28T07:22:29.184Z,100829.02
2023-02-28T07:25:31.034Z,100829.66
2023-02-28T07:28:32.610Z,100827.11
2023-02-28T07:31:34.174Z,100827.63
2023-02-28T07:34:35.852Z,100832.26
2023-02-28T07:37:37.467Z,100831.39
2023-02-28T07:40:39.114Z,100832.44
2023-02-28T07:43:40.791Z,100831.23
2023-02-28T07:46:42.592Z,100827.30
2023-02-28T07:49:44.203Z,100827.95
2023-02-28T07:52:45.738Z,100827.91
2023-02-28T07:55:47.516Z,100830.44
2023-02-28T07:58:49.169Z,100828.44
2023-02-28T08:01:52.159Z,100824.03
2023-02-28T08:04:53.803Z,100827.71
2023-02-28T08:07:55.473Z,100831.85
2023-02-28T08:10:59.521Z,100833.57
2023-02-28T08:14:01.246Z,100830.27
2023-02-28T08:17:02.747Z,100827.75
2023-02-28T08:20:04.636Z,100826.50
2023-02-28T08:23:06.150Z,100820.86
2023-02-28T08:26:07.855Z,100821.02
2023-02-28T08:29:09.422Z,100822.17
2023-02-28T08:32:27.216Z,100819.90
2023-02-28T08:35:30.522Z,100824.57
2023-02-28T08:38:32.266Z,100825.94
2023-02-28T08:41:34.712Z,100821.83
2023-02-28T08:44:36.357Z,100818.92
2023-02-28T08:47:37.840Z,100819.08
2023-02-28T08:50:39.344Z,100824.20
2023-02-28T08:53:41.423Z,100825.21
2023-02-28T08:56:43.187Z,100823.86
2023-02-28T08:59:44.804Z,100816.81
2023-02-28T09:02:47.814Z,100816.59
2023-02-28T09:06:07.714Z,100819.23
2023-02-28T09:09:09.601Z,100820.41
2023-02-28T09:12:11.294Z,100819.94
2023-02-28T09:15:12.815Z,100818.97
2023-02-28T09:18:15.310Z,100820.23
2023-02-28T09:21:18.747Z,100815.70
2023-02-28T09:24:20.360Z,100818.59
2023-02-28T09:27:21.920Z,100822.88
2023-02-28T09:30:23.589Z,100818.08
2023-02-28T09:33:26.303Z,100821.79
2023-02-28T09:36:41.509Z,100823.40
2023-02-28T09:39:45.736Z,100822.87
2023-02-28T09:42:49.320Z,100820.52
2023-02-28T09:45:58.306Z,100820.93
2023-02-28T09:49:03.817Z,100820.91
2023-02-28T09:52:10.465Z,100822.71
2023-02-28T09:55:23.616Z,100819.08
2023-02-28T09:58:38.481Z,100821.81
2023-02-28T10:01:40.822Z,100817.58
2023-02-28T10:04:58.546Z,100816.98
2023-02-28T10:08:14.217Z,100813.89
2023-02-28T10:11:17.605Z,100812.42
2023-02-28T10:14:25.621Z,100817.02
2023-02-28T10:17:29.534Z,100810.77
2023-02-28T10:20:34.607Z,100814.66
2023-02-28T10:23:38.065Z,100809.31
2023-02-28T10:26:40.454Z,100808.09
2023-02-28T10:29:47.390Z,100806.76
2023-02-28T10:32:51.799Z,100797.77
2023-02-28T10:35:54.149Z,100789.59
2023-02-28T10:38:55.859Z,100791.34
2023-02-28T10:41:57.404Z,100786.02
2023-02-28T10:45:15.847Z,100781.04
2023-02-28T10:48:17.495Z,100782.61
2023-02-28T10:51:20.478Z,100779.20
2023-02-28T10:54:37.521Z,100777.63
2023-02-28T10:57:39.044Z,100771.65
2023-02-28T11:00:41.084Z,100771.84
2023-02-28T11:03:43.014Z,100774.27
2023-02-28T11:06:44.734Z,100766.36
2023-02-28T11:09:49.283Z,100759.98
2023-02-28T11:12:53.306Z,100753.61
2023-02-28T11:16:00.437Z,100754.96
2023-02-28T11:19:02.914Z,100757.97
2023-02-28T11:22:05.598Z,100756.39
2023-02-28T11:25:20.529Z,100750.75
2023-02-28T11:28:28.034Z,100749.63
2023-02-28T11:31:30.029Z,100751.63
2023-02-28T11:34:32.804Z,100745.64
2023-02-28T11:37:34.489Z,100738.09
2023-02-28T11:40:46.189Z,100740.14
2023-02-28T11:43:59.978Z,100742.80
2023-02-28T11:47:15.651Z,100739.24
2023-02-28T11:50:40.967Z,100730.92
2023-02-28T11:53:53.084Z,100729.42
2023-02-28T11:57:09.406Z,100730.61
2023-02-28T12:00:54.037Z,100732.17
2023-02-28T12:04:33.606Z,100727.08
2023-02-28T12:08:00.373Z,100724.58
2023-02-28T12:11:20.691Z,100730.02
2023-02-28T12:14:25.612Z,100720.73
2023-02-28T12:17:48.947Z,100721.95
2023-02-28T12:20:55.440Z,100718.84
2023-02-28T12:24:09.836Z,100719.19
2023-02-28T12:27:16.105Z,100717.67
2023-02-28T12:30:29.959Z,100715.23
2023-02-28T12:33:36.346Z,100714.39
2023-02-28T12:36:38.511Z,100711.48
2023-02-28T12:39:50.705Z,100718.45
2023-02-28T12:42:56.411Z,100721.74
2023-02-28T12:46:00.629Z,100722.09
2023-02-28T12:49:07.499Z,100724.55
2023-02-28T12:52:12.410Z,100723.88
2023-02-28T12:55:44.180Z,100724.61
2023-02-28T12:59:21.931Z,100718.55
2023-02-28T13:02:42.236Z,100714.44
2023-02-28T13:06:16.623Z,100713.59
2023-02-28T13:09:18.919Z,100708.89
2023-02-28T13:12:20.622Z,100704.48
2023-02-28T13:15:26.068Z,100706.12
2023-02-28T13:18:45.335Z,100702.01
2023-02-28T13:21:49.903Z,100697.15
2023-02-28T13:24:54.263Z,100694.84
2023-02-28T13:27:57.049Z,100691.53
2023-02-28T13:30:58.657Z,100690.75
2023-02-28T13:34:07.020Z,100690.50
2023-02-28T13:37:24.393Z,100685.72
2023-02-28T13:40:33.663Z,100686.83
2023-02-28T13:44:02.173Z,100683.27
2023-02-28T13:47:03.903Z,100678.76
2023-02-28T13:50:34.965Z,100680.23
2023-02-28T13:53:51.412Z,100672.37
2023-02-28T13:57:31.954Z,100667.42
2023-02-28T14:00:38.846Z,100659.23
2023-02-28T14:04:05.614Z,100659.05
2023-02-28T14:07:07.894Z,100659.11
2023-02-28T14:10:37.177Z,100656.52
2023-02-28T14:13:47.048Z,100652.05
2023-02-28T14:16:50.199Z,100653.52
2023-02-28T14:19:51.853Z,100653.25
2023-02-28T14:23:15.632Z,100654.62
2023-02-28T14:26:59.000Z,100655.11
2023-02-28T14:30:12.940Z,100658.34
2023-02-28T14:33:26.833Z,100657.05
2023-02-28T14:36:33.778Z,100654.55
2023-02-28T14:39:35.518Z,100648.63
2023-02-28T14:42:37.682Z,100649.67
2023-02-28T14:45:39.328Z,100646.92
2023-02-28T14:48:40.905Z,100654.67
2023-02-28T14:51:42.625Z,100654.72
2023-02-28T14:54:44.962Z,100655.45
2023-02-28T14:57:57.914Z,100651.70
2023-02-28T15:01:01.872Z,100651.17
2023-02-28T15:04:06.081Z,100652.85
2023-02-28T15:07:15.226Z,100655.89
2023-02-28T15:10:27.200Z,100654.24
2023-02-28T15:13:39.843Z,100650.63
2023-02-28T15:16:43.579Z,100652.76
2023-02-28T15:19:49.466Z,100655.77
2023-02-28T15:22:52.296Z,100654.25
2023-02-28T15:25:54.504Z,100649.90
2023-02-28T15:29:13.226Z,100648.51
2023-02-28T15:32:33.641Z,100654.16
2023-02-28T15:35:36.071Z,100651.55
2023-02-28T15:38:37.639Z,100650.54
2023-02-28T15:41:39.667Z,100651.58
2023-02-28T15:44:41.275Z,100648.88
2023-02-28T15:47:46.947Z,100650.98
2023-02-28T15:50:52.925Z,100651.52
2023-02-28T15:54:01.423Z,100652.45
2023-02-28T15:57:06.442Z,100654.89
2023-02-28T16:00:13.735Z,100653.01
2023-02-28T16:03:29.024Z,100652.30
2023-02-28T16:06:45.111Z,100652.41
2023-02-28T16:09:46.813Z,100650.77
2023-02-28T16:12:48.467Z,100654.09
2023-02-28T16:15:50.008Z,100650.68
2023-02-28T16:18:51.892Z,100660.12
2023-02-28T16:21:53.442Z,100659.44
2023-02-28T16:24:55.108Z,100660.64
2023-02-28T16:27:56.666Z,100660.14
2023-02-28T16:30:58.403Z,100662.83
2023-02-28T16:34:00.196Z,100666.85
2023-02-28T16:37:01.856Z,100669.04
2023-02-28T16:40:03.694Z,100670.38
2023-02-28T16:43:08.919Z,100673.05
2023-02-28T16:46:12.532Z,100675.10
2023-02-28T16:49:14.107Z,100679.95
2023-02-28T16:52:15.987Z,100682.80
2023-02-28T16:55:17.706Z,100685.09
2023-02-28T16:58:19.441Z,100682.95
2023-02-28T17:01:21.165Z,100680.70
2023-02-28T17:04:22.798Z,100682.91
2023-02-28T17:07:24.914Z,100682.60
2023-02-28T17:10:26.964Z,100678.70
2023-02-28T17:13:28.726Z,100684.91
2023-02-28T17:16:32.957Z,100680.50
2023-02-28T17:19:35.037Z,100681.77
2023-02-28T17:22:36.526Z,100681.73
2023-02-28T17:25:38.255Z,100686.05
2023-02-28T17:28:39.971Z,100687.48
2023-02-28T17:31:41.581Z,100686.83
2023-02-28T17:34:44.320Z,100689.52
2023-02-28T17:37:46.140Z,100696.81
2023-02-28T17:40:47.627Z,100695.48
2023-02-28T17:43:49.370Z,100691.55
2023-02-28T17:46:51.559Z,100689.11
2023-02-28T17:49:53.261Z,100688.03
2023-02-28T17:52:54.957Z,100689.77
2023-02-28T17:55:56.776Z,100684.87
2023-02-28T17:58:58.592Z,100684.90
2023-02-28T18:02:01.591Z,100682.87
2023-02-28T18:05:03.293Z,100682.17
2023-02-28T18:08:05.037Z,100681.80
2023-02-28T18:11:06.581Z,100682.76
2023-02-28T18:14:08.588Z,100685.34
2023-02-28T18:17:11.310Z,100684.48
2023-02-28T18:20:13.260Z,100684.88
2023-02-28T18:23:15.275Z,100685.76
2023-02-28T18:26:18.909Z,100688.17
2023-02-28T18:29:26.274Z,100686.52
2023-02-28T18:32:29.462Z,100683.52
2023-02-28T18:35:31.864Z,100685.45
2023-02-28T18:38:33.576Z,100681.16
2023-02-28T18:41:35.361Z,100680.14
2023-02-28T18:44:37.763Z,100682.45
2023-02-28T18:47:39.491Z,100678.34
2023-02-28T18:50:41.650Z,100674.45
2023-02-28T18:53:44.257Z,100675.44
2023-02-28T18:56:46.024Z,100680.02
2023-02-28T18:59:47.773Z,100678.88
2023-02-28T19:02:50.227Z,100675.55
2023-02-28T19:05:57.069Z,100674.76
2023-02-28T19:09:01.704Z,100676.45
2023-02-28T19:12:03.505Z,100673.96
2023-02-28T19:15:06.581Z,100672.89
2023-02-28T19:18:08.187Z,100668.61
2023-02-28T19:21:12.833Z,100669.35
2023-02-28T19:24:14.513Z,100667.90
2023-02-28T19:27:16.382Z,100670.90
2023-02-28T19:30:18.066Z,100673.19
2023-02-28T19:33:20.586Z,100678.55
2023-02-28T19:36:22.363Z,100676.08
2023-02-28T19:39:23.865Z,100679.62
2023-02-28T19:42:25.723Z,100677.89
2023-02-28T19:45:27.570Z,100675.49
2023-02-28T19:48:29.485Z,100673.09
2023-02-28T19:51:31.125Z,100673.36
2023-02-28T19:54:33.306Z,100672.50
2023-02-28T19:57:35.238Z,100678.98
2023-02-28T20:00:37.157Z,100673.91
2023-02-28T20:03:38.860Z,100674.58
2023-02-28T20:06:40.635Z,100676.39
2023-02-28T20:09:42.360Z,100675.88
2023-02-28T20:12:44.264Z,100678.59
2023-02-28T20:15:48.724Z,100681.27
2023-02-28T20:18:51.434Z,100686.47
2023-02-28T20:21:54.003Z,100694.19
2023-02-28T20:24:56.622Z,100694.25
2023-02-28T20:27:58.367Z,100692.61
2023-02-28T20:31:02.819Z,100689.91
2023-02-28T20:34:05.318Z,100686.48
2023-02-28T20:37:12.777Z,100682.43
2023-02-28T20:40:14.643Z,100680.35
2023-02-28T20:43:16.079Z,100679.71
2023-02-28T20:46:17.908Z,100673.03
2023-02-28T20:49:19.645Z,100671.06
2023-02-28T20:52:21.324Z,100669.91
2023-02-28T20:55:23.061Z,100660.77
2023-02-28T20:58:26.413Z,100664.24
2023-02-28T21:01:29.414Z,100662.79
2023-02-28T21:04:31.262Z,100665.10
2023-02-28T21:07:32.996Z,100665.86
2023-02-28T21:10:38.780Z,100666.70
2023-02-28T21:13:41.812Z,100665.52
2023-02-28T21:16:43.942Z,100664.76
2023-02-28T21:19:46.212Z,100666.31
2023-02-28T21:22:48.737Z,100667.09
2023-02-28T21:25:50.560Z,100667.16
2023-02-28T21:28:56.171Z,100670.08
2023-02-28T21:31:57.937Z,100670.79
2023-02-28T21:34:59.446Z,100671.13
2023-02-28T21:38:01.013Z,100671.07
2023-02-28T21:41:12.355Z,100676.77
2023-02-28T21:44:14.555Z,100675.50
2023-02-28T21:47:16.253Z,100672.30
2023-02-28T21:50:17.961Z,100669.98
2023-02-28T21:53:19.580Z,100665.52
2023-02-28T21:56:25.422Z,100663.66
2023-02-28T21:59:27.534Z,100657.04
2023-02-28T22:02:30.380Z,100656.52
2023-02-28T22:05:32.069Z,100656.46
2023-02-28T22:08:33.848Z,100663.13
2023-02-28T22:11:37.267Z,100665.48
2023-02-28T22:14:39.821Z,100665.33
2023-02-28T22:17:41.979Z,100667.51
2023-02-28T22:20:43.522Z,100670.27
2023-02-28T22:23:45.950Z,100672.20
2023-02-28T22:26:49.715Z,100679.15
2023-02-28T22:29:51.351Z,100681.86
2023-02-28T22:32:52.983Z,100683.83
2023-02-28T22:35:54.896Z,100685.58
2023-02-28T22:38:57.400Z,100687.83
2023-02-28T22:41:59.063Z,100697.33
2023-02-28T22:45:00.666Z,100701.95
2023-02-28T22:48:04.258Z,100704.63
2023-02-28T22:51:10.619Z,100701.09
2023-02-28T22:54:12.798Z,100702.95
2023-02-28T22:57:14.531Z,100706.85
2023-02-28T23:00:16.594Z,100703.86
2023-02-28T23:03:18.168Z,100710.38
2023-02-28T23:06:42.041Z,100709.80
2023-02-28T23:09:43.637Z,100712.63
2023-02-28T23:12:45.180Z,100714.23
2023-02-28T23:15:47.427Z,100716.03
2023-02-28T23:18:49.417Z,100711.45
2023-02-28T23:21:51.101Z,100711.52
2023-02-28T23:24:52.669Z,100716.73
2023-02-28T23:27:54.333Z,100717.30
2023-02-28T23:30:55.870Z,100714.29
2023-02-28T23:33:57.659Z,100716.08
2023-02-28T23:37:01.316Z,100710.42
2023-02-28T23:40:04.673Z,100709.89
2023-02-28T23:43:06.242Z,100711.20
2023-02-28T23:46:08.904Z,100716.27
2023-02-28T23:49:10.718Z,100713.75
2023-02-28T23:52:12.466Z,100712.27
2023-02-28T23:55:14.049Z,100713.40
2023-02-28T23:58:15.996Z,100713.86
